Time;durP1;ratioP1;P1;durP2;ratioP2;P2;SDS_P1;SDS_P2;PMS_P1;PMS_P2;Temp;Humidity;BMP_temperature;BMP_pressure;BME280_temperature;BME280_humidity;BME280_pressure;Samples;Min_cycle;Max_cycle;Signal;HPM_P1;HPM_P2
2021/09/28 00:01:19;;;;;;;2.35;0.52;;;22.30;44.10;;;;;;6220080;28;20124;-78
2021/09/28 00:04:20;;;;;;;1.45;0.50;;;22.30;44.10;;;;;;6205495;28;20038;-78
2021/09/28 00:07:21;;;;;;;2.00;0.50;;;22.30;43.80;;;;;;6224572;28;20038;-78
2021/09/28 00:10:23;;;;;;;2.80;0.65;;;22.30;43.70;;;;;;6221760;28;20030;-78
2021/09/28 00:13:24;;;;;;;1.98;0.60;;;22.30;43.70;;;;;;6223562;28;20046;-78
2021/09/28 00:16:25;;;;;;;1.15;0.28;;;22.30;43.60;;;;;;6222926;28;20463;-78
2021/09/28 00:19:26;;;;;;;0.30;0.30;;;22.40;43.50;;;;;;6207904;28;20042;-80
2021/09/28 00:22:27;;;;;;;0.63;0.40;;;22.40;43.30;;;;;;6225098;28;20053;-79
2021/09/28 00:25:29;;;;;;;3.08;0.63;;;22.40;43.10;;;;;;6208106;28;20038;-80
2021/09/28 00:28:30;;;;;;;0.30;0.30;;;22.40;43.10;;;;;;6224233;28;20033;-79
2021/09/28 00:31:31;;;;;;;1.67;0.55;;;22.40;43.30;;;;;;6224806;28;20050;-78
2021/09/28 00:34:33;;;;;;;2.45;0.50;;;22.40;43.30;;;;;;6199915;28;20367;-79
2021/09/28 00:37:34;;;;;;;2.35;0.52;;;22.40;43.20;;;;;;6223846;28;20042;-79
2021/09/28 00:40:35;;;;;;;0.55;0.40;;;22.40;43.20;;;;;;6223731;28;20124;-80
2021/09/28 00:43:49;;;;;;;0.38;0.30;;;22.40;43.20;;;;;;6203860;28;20042;-79
2021/09/28 00:46:49;;;;;;;0.50;0.40;;;22.40;43.40;;;;;;6202969;28;20045;-79
2021/09/28 00:49:50;;;;;;;0.70;0.40;;;21.50;43.00;;;;;;6223773;28;20038;-79
2021/09/28 00:52:52;;;;;;;1.40;0.40;;;22.40;43.40;;;;;;6222420;28;20088;-78
2021/09/28 00:55:53;;;;;;;2.35;0.70;;;22.40;43.40;;;;;;6221633;28;20034;-79
2021/09/28 00:58:54;;;;;;;0.75;0.25;;;22.40;43.30;;;;;;6222026;28;20037;-78
2021/09/28 01:01:55;;;;;;;1.75;0.50;;;22.40;43.40;;;;;;6204787;28;20073;-79
2021/09/28 01:04:56;;;;;;;2.35;0.45;;;22.40;43.50;;;;;;6196769;28;20027;-79
2021/09/28 01:07:57;;;;;;;1.17;0.50;;;22.40;43.60;;;;;;6181461;28;20034;-78
2021/09/28 01:11:00;;;;;;;1.08;0.40;;;22.40;43.60;;;;;;6214731;28;20053;-78
2021/09/28 01:14:01;;;;;;;5.72;0.70;;;22.40;44.30;;;;;;6199023;28;20365;-78
2021/09/28 01:17:09;;;;;;;1.67;0.50;;;22.40;43.80;;;;;;6218579;28;20052;-78
2021/09/28 01:20:10;;;;;;;3.03;0.50;;;22.40;43.70;;;;;;6219595;28;20080;-78
2021/09/28 01:23:11;;;;;;;1.17;0.80;;;22.40;43.70;;;;;;6220917;28;20120;-78
2021/09/28 01:26:16;;;;;;;0.88;0.35;;;22.40;43.80;;;;;;6221288;28;20038;-78
2021/09/28 01:29:17;;;;;;;1.55;0.50;;;22.40;43.80;;;;;;6197393;28;20085;-78
2021/09/28 01:32:18;;;;;;;0.40;0.40;;;22.40;43.80;;;;;;6198401;28;20043;-78
2021/09/28 01:35:19;;;;;;;1.13;0.28;;;22.40;43.90;;;;;;6196537;28;20122;-78
2021/09/28 01:38:21;;;;;;;3.33;0.70;;;22.40;43.70;;;;;;6196989;28;20093;-79
2021/09/28 01:41:22;;;;;;;0.20;0.20;;;22.40;43.60;;;;;;6196656;28;20042;-77
2021/09/28 01:44:23;;;;;;;2.90;0.40;;;22.40;43.60;;;;;;6180465;28;20129;-79
2021/09/28 01:47:24;;;;;;;1.77;0.57;;;22.50;43.60;;;;;;6197006;28;20077;-78
2021/09/28 01:50:25;;;;;;;0.73;0.40;;;22.50;43.70;;;;;;6196677;28;20410;-77
2021/09/28 01:53:26;;;;;;;6.80;0.60;;;22.50;43.50;;;;;;6196951;28;20038;-78
2021/09/28 01:56:27;;;;;;;0.85;0.40;;;22.50;43.40;;;;;;6195858;28;20466;-77
2021/09/28 01:59:28;;;;;;;2.90;0.47;;;22.50;43.30;;;;;;6194970;28;20050;-78
2021/09/28 02:02:29;;;;;;;0.43;0.30;;;22.50;43.30;;;;;;6213531;28;20097;-78
2021/09/28 02:05:30;;;;;;;0.90;0.43;;;22.50;43.40;;;;;;6196021;28;20026;-78
2021/09/28 02:08:31;;;;;;;0.93;0.50;;;22.60;43.40;;;;;;6213021;28;20408;-79
2021/09/28 02:11:32;;;;;;;3.58;0.30;;;22.60;43.50;;;;;;6213221;28;20347;-78
2021/09/28 02:14:33;;;;;;;5.80;0.60;;;22.50;43.50;;;;;;6195285;28;20046;-78
2021/09/28 02:17:34;;;;;;;1.35;0.47;;;22.50;43.60;;;;;;6196991;28;20535;-78
2021/09/28 02:20:35;;;;;;;1.13;0.32;;;22.50;43.80;;;;;;6221230;28;20042;-79
2021/09/28 02:23:36;;;;;;;0.30;0.30;;;22.50;45.00;;;;;;6221567;28;20113;-78
2021/09/28 02:26:37;;;;;;;3.40;0.32;;;22.40;44.90;;;;;;6195139;28;20030;-79
2021/09/28 02:29:38;;;;;;;4.75;0.73;;;22.30;45.30;;;;;;6195840;28;20034;-78
2021/09/28 02:32:39;;;;;;;2.13;0.68;;;22.30;45.70;;;;;;6180871;28;20030;-79
2021/09/28 02:35:40;;;;;;;1.27;0.50;;;22.30;46.00;;;;;;6178707;28;20045;-78
2021/09/28 02:38:41;;;;;;;2.15;0.40;;;22.20;46.30;;;;;;6201689;28;20045;-77
2021/09/28 02:41:42;;;;;;;1.65;0.65;;;22.30;46.50;;;;;;6220141;28;20502;-78
2021/09/28 02:44:45;;;;;;;2.03;0.40;;;22.20;46.80;;;;;;6219407;28;20053;-79
2021/09/28 02:47:49;;;;;;;2.53;0.60;;;22.10;47.00;;;;;;6220030;28;20073;-79
2021/09/28 02:50:50;;;;;;;5.03;0.43;;;22.10;47.20;;;;;;6204159;28;20445;-77
2021/09/28 02:53:51;;;;;;;1.67;0.47;;;22.10;47.30;;;;;;6221560;28;20120;-79
2021/09/28 02:56:52;;;;;;;4.35;1.15;;;22.10;47.50;;;;;;6221989;28;20052;-78
2021/09/28 02:59:53;;;;;;;1.42;0.57;;;22.10;47.60;;;;;;6207846;28;20095;-79
2021/09/28 03:02:54;;;;;;;0.60;0.47;;;22.00;47.90;;;;;;6224441;28;20038;-78
2021/09/28 03:05:55;;;;;;;1.80;0.50;;;22.00;48.10;;;;;;6223624;28;20052;-78
2021/09/28 03:08:56;;;;;;;0.57;0.47;;;21.90;48.30;;;;;;6207352;28;20092;-78
2021/09/28 03:11:57;;;;;;;1.05;0.50;;;21.90;48.40;;;;;;6220213;28;20038;-78
2021/09/28 03:14:58;;;;;;;1.67;0.57;;;21.90;48.50;;;;;;6209725;28;20034;-78
2021/09/28 03:17:58;;;;;;;0.70;0.55;;;21.80;48.50;;;;;;6210964;28;20367;-78
2021/09/28 03:20:59;;;;;;;0.32;0.22;;;21.80;48.70;;;;;;6221162;28;20486;-79
2021/09/28 03:24:00;;;;;;;3.60;0.50;;;21.80;48.80;;;;;;6219497;28;20062;-79
2021/09/28 03:27:01;;;;;;;3.08;0.40;;;21.80;48.90;;;;;;6203190;28;20048;-78
2021/09/28 03:30:05;;;;;;;3.17;0.55;;;21.80;48.90;;;;;;6219048;28;20049;-79
2021/09/28 03:33:07;;;;;;;1.77;0.50;;;21.80;49.00;;;;;;6197150;28;20371;-79
2021/09/28 03:36:08;;;;;;;2.17;0.70;;;21.80;49.20;;;;;;6184856;28;20411;-79
2021/09/28 03:39:10;;;;;;;0.60;0.50;;;21.80;49.30;;;;;;6200819;28;20034;-78
2021/09/28 03:42:11;;;;;;;2.25;0.65;;;21.70;49.40;;;;;;6221136;28;20037;-79
2021/09/28 03:45:12;;;;;;;0.70;0.57;;;21.70;49.50;;;;;;6225917;28;20033;-78
2021/09/28 03:48:13;;;;;;;0.45;0.45;;;21.70;49.60;;;;;;6227331;28;20030;-79
2021/09/28 03:51:15;;;;;;;0.40;0.40;;;21.70;49.70;;;;;;6228458;28;20037;-78
2021/09/28 03:54:16;;;;;;;1.30;0.47;;;21.70;49.90;;;;;;6225268;28;20072;-79
2021/09/28 03:57:17;;;;;;;1.05;0.47;;;21.60;50.30;;;;;;6226679;28;20088;-77
2021/09/28 04:00:21;;;;;;;1.33;0.52;;;21.60;50.50;;;;;;6228463;28;20034;-77
2021/09/28 04:03:22;;;;;;;1.27;0.52;;;21.50;50.70;;;;;;6227633;28;20125;-78
2021/09/28 04:06:23;;;;;;;2.83;0.65;;;21.40;51.00;;;;;;6197116;28;20030;-78
2021/09/28 04:09:24;;;;;;;2.90;0.70;;;21.40;51.30;;;;;;6204881;28;20447;-78
2021/09/28 04:12:25;;;;;;;1.10;0.43;;;21.30;51.60;;;;;;6227925;28;20463;-78
2021/09/28 04:15:26;;;;;;;7.55;0.70;;;21.30;51.80;;;;;;6228976;28;20037;-78
2021/09/28 04:18:27;;;;;;;7.05;1.20;;;21.20;52.10;;;;;;6229406;28;20050;-79
2021/09/28 04:21:28;;;;;;;1.70;0.70;;;21.20;52.70;;;;;;6226912;28;20045;-78
2021/09/28 04:24:30;;;;;;;4.93;1.05;;;21.10;52.90;;;;;;6225178;28;20041;-78
2021/09/28 04:27:31;;;;;;;0.90;0.40;;;21.00;53.20;;;;;;6224536;28;20065;-78
2021/09/28 04:30:32;;;;;;;4.10;0.60;;;20.90;53.40;;;;;;6202054;28;20050;-79
2021/09/28 04:33:33;;;;;;;1.17;0.63;;;20.90;53.70;;;;;;6184622;28;20451;-78
2021/09/28 04:36:34;;;;;;;2.25;0.57;;;20.90;54.00;;;;;;6199985;28;20043;-76
2021/09/28 04:39:35;;;;;;;5.22;0.70;;;20.80;54.20;;;;;;6201193;28;20110;-77
2021/09/28 04:42:36;;;;;;;3.50;1.02;;;20.70;54.40;;;;;;6202313;28;20045;-77
2021/09/28 04:45:38;;;;;;;1.08;0.60;;;20.70;54.60;;;;;;6188084;28;20035;-77
2021/09/28 04:48:39;;;;;;;2.20;0.82;;;20.60;54.70;;;;;;6202660;28;20485;-78
2021/09/28 04:51:40;;;;;;;1.30;0.70;;;20.60;54.80;;;;;;6228642;28;20033;-78
2021/09/28 04:54:41;;;;;;;4.47;1.58;;;20.60;55.10;;;;;;6222612;28;20526;-78
2021/09/28 04:57:42;;;;;;;2.42;0.60;;;20.50;55.30;;;;;;6223366;28;20041;-82
2021/09/28 05:00:43;;;;;;;1.85;0.60;;;20.50;55.50;;;;;;6224059;28;20033;-80
2021/09/28 05:03:44;;;;;;;1.48;0.70;;;20.50;55.60;;;;;;6218505;28;20528;-80
2021/09/28 05:06:45;;;;;;;0.43;0.43;;;20.50;55.70;;;;;;6225767;28;20079;-81
2021/09/28 05:09:46;;;;;;;1.52;0.77;;;20.50;55.80;;;;;;6209643;28;20316;-78
2021/09/28 05:12:47;;;;;;;2.13;0.55;;;20.40;56.00;;;;;;6206096;28;20096;-80
2021/09/28 05:15:48;;;;;;;3.47;0.75;;;20.40;56.10;;;;;;6229866;28;20038;-81
2021/09/28 05:18:49;;;;;;;1.27;0.60;;;20.40;56.20;;;;;;6226830;28;20030;-82
2021/09/28 05:21:51;;;;;;;1.77;0.82;;;20.40;56.20;;;;;;6204959;28;20058;-82
2021/09/28 05:24:52;;;;;;;1.95;0.50;;;20.40;56.30;;;;;;6184149;28;20404;-82
2021/09/28 05:27:54;;;;;;;1.33;0.70;;;20.40;56.30;;;;;;6196387;28;20030;-81
2021/09/28 05:30:55;;;;;;;1.33;0.80;;;20.40;56.40;;;;;;6210762;28;20050;-82
2021/09/28 05:33:56;;;;;;;5.85;0.73;;;20.30;56.40;;;;;;6204064;28;20399;-82
2021/09/28 05:36:57;;;;;;;3.33;0.70;;;20.40;56.50;;;;;;6223588;28;20040;-79
2021/09/28 05:39:58;;;;;;;9.60;1.00;;;20.40;56.50;;;;;;6222141;28;20375;-81
2021/09/28 05:42:59;;;;;;;2.58;0.77;;;20.40;56.50;;;;;;6201643;28;20048;-81
2021/09/28 05:46:00;;;;;;;4.15;0.80;;;20.40;56.50;;;;;;6223693;28;20048;-80
2021/09/28 05:49:01;;;;;;;1.08;0.60;;;20.40;56.40;;;;;;6221097;28;20053;-80
2021/09/28 05:52:22;;;;;;;6.25;0.68;;;20.40;56.40;;;;;;6222431;28;20099;-80
2021/09/28 05:55:24;;;;;;;1.30;0.90;;;20.40;56.60;;;;;;6218802;28;20033;-80
2021/09/28 05:58:25;;;;;;;2.25;1.08;;;20.40;56.40;;;;;;6204318;28;20112;-80
2021/09/28 06:01:27;;;;;;;2.50;0.82;;;20.40;56.40;;;;;;6218389;28;20107;-79
2021/09/28 06:04:28;;;;;;;1.70;0.70;;;20.40;56.40;;;;;;6221520;28;20034;-81
2021/09/28 06:07:30;;;;;;;2.75;1.05;;;20.40;56.40;;;;;;6221254;28;20041;-80
2021/09/28 06:10:31;;;;;;;2.15;1.15;;;20.40;56.40;;;;;;6221064;28;20350;-80
2021/09/28 06:13:32;;;;;;;3.22;1.00;;;20.40;56.50;;;;;;6232290;28;20046;-82
2021/09/28 06:16:33;;;;;;;3.85;1.40;;;20.40;56.60;;;;;;6237628;28;20033;-80
2021/09/28 06:19:35;;;;;;;3.50;1.45;;;20.40;56.70;;;;;;6237742;28;20037;-80
2021/09/28 06:22:37;;;;;;;5.70;1.30;;;20.40;56.80;;;;;;6204876;28;20424;-80
2021/09/28 06:25:38;;;;;;;9.52;1.48;;;20.40;56.80;;;;;;6204056;28;20029;-80
2021/09/28 06:28:39;;;;;;;3.63;1.27;;;20.40;56.80;;;;;;6205591;28;20094;-80
2021/09/28 06:31:42;;;;;;;1.95;1.35;;;20.40;56.80;;;;;;6203073;28;20378;-80
2021/09/28 06:34:42;;;;;;;2.22;1.23;;;20.40;56.80;;;;;;6215937;28;20038;-80
2021/09/28 06:37:43;;;;;;;2.50;1.33;;;20.50;56.70;;;;;;6219719;28;20120;-81
2021/09/28 06:40:44;;;;;;;3.17;1.42;;;20.50;57.20;;;;;;6221894;28;20038;-79
2021/09/28 06:43:47;;;;;;;6.40;1.48;;;20.60;56.60;;;;;;6204756;28;20424;-80
2021/09/28 06:46:47;;;;;;;1.92;1.30;;;20.60;57.00;;;;;;6221034;28;20240;-80
2021/09/28 06:49:48;;;;;;;4.72;1.23;;;20.70;56.30;;;;;;6163589;28;20035;-80
2021/09/28 06:52:49;;;;;;;2.55;1.65;;;20.70;56.30;;;;;;6196515;28;20034;-80
2021/09/28 06:55:50;;;;;;;10.13;1.70;;;20.70;56.20;;;;;;6196149;28;20038;-80
2021/09/28 06:58:52;;;;;;;7.05;1.98;;;20.70;56.20;;;;;;6197159;28;20044;-78
2021/09/28 07:01:53;;;;;;;9.60;1.48;;;20.70;56.20;;;;;;6212233;28;20475;-80
2021/09/28 07:04:54;;;;;;;2.85;1.60;;;20.70;56.20;;;;;;6212411;28;20035;-81
2021/09/28 07:07:55;;;;;;;3.92;1.48;;;20.70;56.30;;;;;;6196195;28;20118;-80
2021/09/28 07:10:56;;;;;;;3.17;1.55;;;20.80;56.20;;;;;;6195173;28;20042;-81
2021/09/28 07:13:57;;;;;;;3.33;1.25;;;20.80;56.20;;;;;;6224622;28;20415;-80
2021/09/28 07:16:59;;;;;;;2.22;1.30;;;20.80;56.10;;;;;;6225909;28;20053;-79
2021/09/28 07:20:02;;;;;;;3.08;1.77;;;20.80;56.00;;;;;;6226719;28;20411;-79
2021/09/28 07:23:04;;;;;;;3.47;1.65;;;20.90;55.90;;;;;;6232129;28;20517;-80
2021/09/28 07:26:07;;;;;;;2.05;1.27;;;20.90;55.80;;;;;;6225147;28;20042;-80
2021/09/28 07:29:08;;;;;;;1.63;1.15;;;20.90;55.80;;;;;;6193572;28;20145;-80
2021/09/28 07:32:13;;;;;;;3.13;1.13;;;21.00;55.70;;;;;;6200215;28;20482;-79
2021/09/28 07:35:15;;;;;;;1.92;1.48;;;21.10;55.50;;;;;;6217506;28;20030;-82
2021/09/28 07:38:17;;;;;;;9.43;1.67;;;21.10;55.30;;;;;;6217678;28;20042;-80
2021/09/28 07:41:19;;;;;;;51.90;4.55;;;21.20;55.20;;;;;;6201091;28;20034;-79
2021/09/28 07:44:20;;;;;;;6.80;1.75;;;21.20;55.00;;;;;;6201686;28;20034;-81
2021/09/28 07:47:27;;;;;;;12.55;2.28;;;21.30;54.90;;;;;;6226244;28;20030;-81
2021/09/28 07:50:28;;;;;;;12.23;2.33;;;21.30;55.00;;;;;;6209229;28;20038;-81
2021/09/28 07:53:29;;;;;;;10.82;2.40;;;21.30;54.80;;;;;;6221025;28;20069;-81
2021/09/28 07:56:31;;;;;;;13.32;1.92;;;21.30;54.80;;;;;;6207764;28;20037;-80
2021/09/28 07:59:32;;;;;;;9.15;1.95;;;21.30;54.70;;;;;;6226245;28;20048;-80
2021/09/28 08:02:35;;;;;;;7.55;1.98;;;21.30;54.60;;;;;;6193537;28;20048;-80
2021/09/28 08:05:36;;;;;;;4.13;1.48;;;21.50;54.60;;;;;;6200976;28;20054;-79
2021/09/28 08:08:37;;;;;;;1.92;1.08;;;21.60;54.20;;;;;;6208178;28;20038;-80
2021/09/28 08:11:38;;;;;;;9.40;1.88;;;21.70;53.90;;;;;;6200891;28;20030;-81
2021/09/28 08:14:39;;;;;;;7.95;1.63;;;21.80;53.90;;;;;;6184605;28;20034;-81
2021/09/28 08:17:40;;;;;;;16.48;2.45;;;21.80;53.70;;;;;;6184641;28;20034;-81
2021/09/28 08:20:45;;;;;;;10.02;1.70;;;21.70;53.60;;;;;;6200071;28;20034;-81
2021/09/28 08:23:47;;;;;;;15.65;2.20;;;22.00;53.60;;;;;;6200722;28;20102;-80
2021/09/28 08:30:10;;;;;;;4.68;1.70;;;22.30;53.00;;;;;;6196645;28;20074;-80
2021/09/28 08:33:10;;;;;;;3.13;1.48;;;22.30;52.70;;;;;;6226706;28;20042;-80
2021/09/28 08:36:14;;;;;;;2.47;1.48;;;22.40;52.50;;;;;;6220438;28;20034;-80
2021/09/28 08:39:17;;;;;;;6.63;1.52;;;22.40;52.30;;;;;;6224311;28;20026;-81
2021/09/28 08:42:17;;;;;;;6.45;1.70;;;22.60;52.10;;;;;;6224086;28;20443;-80
2021/09/28 08:45:18;;;;;;;6.80;1.80;;;22.60;51.90;;;;;;6228413;28;20041;-81
2021/09/28 08:48:20;;;;;;;4.90;1.55;;;22.70;51.70;;;;;;6212470;28;20030;-80
2021/09/28 08:51:23;;;;;;;4.60;1.63;;;22.70;51.70;;;;;;6226685;28;20473;-80
2021/09/28 08:54:23;;;;;;;6.10;1.58;;;22.70;51.60;;;;;;6224657;28;20033;-80
2021/09/28 08:57:24;;;;;;;3.53;1.50;;;22.60;51.50;;;;;;6207753;28;20060;-81
2021/09/28 09:00:26;;;;;;;5.10;1.52;;;22.70;51.40;;;;;;6206489;28;20152;-81
2021/09/28 09:03:28;;;;;;;6.07;1.70;;;22.70;51.30;;;;;;6207991;28;20034;-81
2021/09/28 09:06:34;;;;;;;6.85;1.65;;;22.70;51.30;;;;;;6222895;28;20026;-81
2021/09/28 09:09:46;;;;;;;2.50;1.38;;;22.80;51.20;;;;;;6207179;28;20037;-80
2021/09/28 09:12:47;;;;;;;2.45;1.20;;;22.80;51.10;;;;;;6223351;28;20478;-81
2021/09/28 09:15:47;;;;;;;3.10;1.48;;;22.90;51.00;;;;;;6217774;28;20071;-80
2021/09/28 09:19:08;;;;;;;2.13;1.20;;;23.00;50.80;;;;;;6224746;28;20095;-81
2021/09/28 09:22:09;;;;;;;3.33;1.20;;;23.10;50.60;;;;;;6197754;28;20074;-81
2021/09/28 09:25:19;;;;;;;4.93;1.70;;;23.20;50.50;;;;;;6198477;28;20042;-81
2021/09/28 09:28:32;;;;;;;7.45;2.45;;;23.20;50.40;;;;;;6196004;28;20062;-81
2021/09/28 09:31:34;;;;;;;4.32;1.60;;;23.30;50.30;;;;;;6197150;28;20057;-81
2021/09/28 09:34:35;;;;;;;3.45;1.42;;;23.30;50.10;;;;;;6210589;28;20050;-81
2021/09/28 09:37:37;;;;;;;4.30;1.40;;;23.30;50.00;;;;;;6197629;28;20096;-80
2021/09/28 09:40:43;;;;;;;2.22;1.35;;;23.30;50.10;;;;;;6179948;28;20132;-81
2021/09/28 09:43:48;;;;;;;2.50;1.65;;;23.30;50.10;;;;;;6180713;28;20046;-81
2021/09/28 09:46:51;;;;;;;6.07;1.45;;;23.30;50.10;;;;;;6197623;28;20313;-80
2021/09/28 09:50:15;;;;;;;5.05;1.42;;;23.30;50.00;;;;;;6196949;28;20030;-80
2021/09/28 09:53:16;;;;;;;6.25;1.27;;;23.40;49.90;;;;;;6221274;28;20430;-81
2021/09/28 09:56:18;;;;;;;2.05;1.27;;;23.50;49.70;;;;;;6198085;28;20033;-81
2021/09/28 09:59:21;;;;;;;5.97;1.50;;;23.50;49.40;;;;;;6218326;28;20033;-79
2021/09/28 10:02:24;;;;;;;6.80;1.30;;;23.60;49.30;;;;;;6221530;28;20046;-81
2021/09/28 10:05:25;;;;;;;8.00;1.55;;;23.70;49.10;;;;;;6220680;28;20141;-81
2021/09/28 10:08:26;;;;;;;2.17;1.33;;;23.70;49.00;;;;;;6219642;28;20188;-79
2021/09/28 10:11:36;;;;;;;5.07;1.70;;;23.70;49.00;;;;;;6202535;28;20057;-81
2021/09/28 10:14:41;;;;;;;8.07;1.55;;;23.80;48.90;;;;;;6194818;28;20071;-80
2021/09/28 10:17:46;;;;;;;4.82;1.45;;;23.90;48.60;;;;;;6221120;28;20451;-80
2021/09/28 10:20:49;;;;;;;8.10;1.45;;;24.00;48.30;;;;;;6178115;28;20030;-81
2021/09/28 10:24:18;;;;;;;2.63;1.45;;;24.20;47.90;;;;;;6219561;28;20041;-82
2021/09/28 10:27:25;;;;;;;6.43;1.80;;;24.50;47.30;;;;;;6194823;28;20371;-81
2021/09/28 10:33:34;;;;;;;3.58;1.63;;;24.90;46.40;;;;;;6213137;28;20030;-80
2021/09/28 10:36:52;;;;;;;3.35;1.65;;;25.20;46.20;;;;;;6198066;28;20510;-80
2021/09/28 10:39:52;;;;;;;2.00;1.30;;;25.30;45.70;;;;;;6209552;28;20090;-80
2021/09/28 10:42:59;;;;;;;3.17;1.42;;;25.50;45.40;;;;;;6236151;28;20071;-81
2021/09/28 10:46:03;;;;;;;2.00;1.45;;;25.60;44.80;;;;;;6227585;28;20030;-81
2021/09/28 10:49:22;;;;;;;5.10;1.75;;;25.50;44.60;;;;;;6224646;28;20046;-81
2021/09/28 10:52:26;;;;;;;2.30;1.80;;;25.40;44.60;;;;;;6213849;28;20045;-81
2021/09/28 10:55:38;;;;;;;4.28;1.60;;;25.50;44.50;;;;;;6221453;28;20466;-81
2021/09/28 10:59:02;;;;;;;1.77;1.17;;;25.40;44.40;;;;;;6220875;28;20042;-81
2021/09/28 11:02:08;;;;;;;2.92;1.40;;;25.40;43.80;;;;;;6200117;28;20447;-81
2021/09/28 11:05:28;;;;;;;2.70;1.50;;;25.40;44.30;;;;;;6198186;28;20030;-81
2021/09/28 11:08:34;;;;;;;3.78;1.73;;;25.40;44.10;;;;;;6213669;28;20056;-81
2021/09/28 11:11:36;;;;;;;5.85;2.17;;;25.30;43.90;;;;;;6216596;28;20034;-80
2021/09/28 11:14:38;;;;;;;5.07;1.58;;;25.40;43.80;;;;;;6219908;28;20038;-80
2021/09/28 11:17:41;;;;;;;6.88;1.45;;;25.60;43.70;;;;;;6219165;28;20368;-82
2021/09/28 11:20:42;;;;;;;5.80;1.52;;;25.90;43.50;;;;;;6218772;28;20034;-81
2021/09/28 11:23:50;;;;;;;3.50;1.30;;;26.30;42.70;;;;;;6200362;28;20034;-80
2021/09/28 11:27:01;;;;;;;4.47;1.30;;;26.70;42.00;;;;;;6232137;28;20503;-81
2021/09/28 11:30:14;;;;;;;2.97;1.33;;;27.10;41.50;;;;;;6217258;28;20038;-81
2021/09/28 11:33:16;;;;;;;1.75;1.08;;;27.30;40.60;;;;;;6217970;28;20046;-82
2021/09/28 11:36:18;;;;;;;3.30;1.75;;;27.40;40.30;;;;;;6215335;28;20038;-81
2021/09/28 11:39:20;;;;;;;5.40;1.25;;;27.40;40.10;;;;;;6201417;28;20037;-81
2021/09/28 11:42:23;;;;;;;2.45;1.02;;;27.40;40.20;;;;;;6219374;28;20034;-81
2021/09/28 11:45:28;;;;;;;3.38;1.20;;;27.60;40.10;;;;;;6201607;28;20187;-81
2021/09/28 11:49:05;;;;;;;1.98;1.05;;;27.90;39.80;;;;;;6219742;28;20033;-81
2021/09/28 11:52:08;;;;;;;8.90;1.00;;;28.00;39.10;;;;;;6208962;28;20038;-82
2021/09/28 11:55:09;;;;;;;2.83;1.00;;;28.40;38.50;;;;;;6198821;28;20042;-80
2021/09/28 11:58:10;;;;;;;3.65;1.08;;;28.80;37.50;;;;;;6194192;28;20043;-81
2021/09/28 12:01:12;;;;;;;1.40;0.98;;;29.10;36.70;;;;;;6194974;28;20125;-80
2021/09/28 12:10:48;;;;;;;3.03;1.00;;;29.60;35.50;;;;;;6222031;28;20054;-81
2021/09/28 12:13:49;;;;;;;6.90;1.10;;;30.00;35.00;;;;;;6205783;28;20083;-80
2021/09/28 12:16:50;;;;;;;3.85;0.88;;;30.40;34.40;;;;;;6204854;28;20018;-81
2021/09/28 12:19:56;;;;;;;2.35;1.20;;;30.80;33.70;;;;;;6184100;28;20111;-80
2021/09/28 12:23:01;;;;;;;2.90;0.90;;;31.20;32.80;;;;;;6205173;28;20048;-81
2021/09/28 12:26:02;;;;;;;3.75;0.82;;;31.30;32.40;;;;;;6221154;28;20069;-82
2021/09/28 12:29:21;;;;;;;4.45;1.00;;;31.40;32.00;;;;;;6204833;28;20034;-80
2021/09/28 12:32:28;;;;;;;2.63;1.15;;;31.70;31.70;;;;;;6218064;28;20042;-81
2021/09/28 12:35:34;;;;;;;9.27;1.33;;;31.80;31.10;;;;;;6222267;28;20109;-82
2021/09/28 12:38:35;;;;;;;5.15;0.90;;;32.00;31.10;;;;;;6220978;28;20332;-82
2021/09/28 12:42:09;;;;;;;2.80;0.98;;;32.10;30.90;;;;;;6221432;28;20049;-81
2021/09/28 12:45:16;;;;;;;1.58;0.90;;;32.50;30.60;;;;;;6154380;28;20050;-81
2021/09/28 12:48:23;;;;;;;3.78;0.85;;;33.00;29.90;;;;;;6160916;28;20036;-81
2021/09/28 12:51:24;;;;;;;4.28;1.10;;;32.90;29.80;;;;;;6173461;28;20042;-81
2021/09/28 12:54:27;;;;;;;9.13;1.10;;;32.40;30.20;;;;;;6156853;28;20117;-81
2021/09/28 12:57:29;;;;;;;2.17;1.02;;;31.70;30.80;;;;;;6140185;28;20101;-81
2021/09/28 13:00:31;;;;;;;3.08;1.25;;;30.90;31.30;;;;;;6156361;28;20440;-81
2021/09/28 13:03:33;;;;;;;2.95;1.00;;;30.10;32.50;;;;;;6173439;28;20047;-81
2021/09/28 13:06:38;;;;;;;3.88;1.30;;;29.30;33.30;;;;;;6154267;28;20039;-82
2021/09/28 13:09:39;;;;;;;4.00;1.00;;;28.60;34.10;;;;;;6167663;28;20031;-82
2021/09/28 13:12:40;;;;;;;4.82;1.05;;;28.40;34.90;;;;;;6171973;28;20105;-81
2021/09/28 13:15:42;;;;;;;4.20;1.38;;;28.10;35.50;;;;;;6173482;28;20125;-81
2021/09/28 13:18:43;;;;;;;3.05;1.45;;;27.90;35.90;;;;;;6170712;28;20046;-81
2021/09/28 13:21:44;;;;;;;3.13;1.20;;;27.60;36.40;;;;;;6191064;28;20374;-81
2021/09/28 13:24:46;;;;;;;4.53;0.90;;;27.30;36.80;;;;;;6203733;28;20057;-81
2021/09/28 13:27:49;;;;;;;2.95;1.20;;;27.10;37.20;;;;;;6222267;28;20041;-80
2021/09/28 13:30:50;;;;;;;1.20;1.00;;;26.90;37.50;;;;;;6208143;28;20363;-81
2021/09/28 13:33:51;;;;;;;3.15;0.82;;;26.90;37.90;;;;;;6205252;28;20053;-80
2021/09/28 13:36:55;;;;;;;2.20;1.30;;;26.80;38.00;;;;;;6213683;28;20380;-79
2021/09/28 13:39:56;;;;;;;1.48;0.90;;;26.70;38.30;;;;;;6216739;28;20034;-81
2021/09/28 13:42:57;;;;;;;7.68;1.13;;;26.60;38.50;;;;;;6220400;28;20121;-81
2021/09/28 13:46:01;;;;;;;2.88;0.98;;;26.50;38.70;;;;;;6221422;28;20382;-80
2021/09/28 13:49:02;;;;;;;1.15;0.85;;;26.40;39.00;;;;;;6207021;28;20044;-82
2021/09/28 13:52:06;;;;;;;1.85;0.93;;;26.40;39.20;;;;;;6181658;28;20038;-80
2021/09/28 13:55:07;;;;;;;5.32;0.90;;;26.40;39.20;;;;;;6195805;28;20042;-80
2021/09/28 13:58:09;;;;;;;2.72;1.00;;;26.40;39.30;;;;;;6198127;28;20042;-81
2021/09/28 14:01:10;;;;;;;1.25;0.98;;;26.30;39.30;;;;;;6203234;28;20044;-80
2021/09/28 14:04:11;;;;;;;11.15;1.00;;;26.30;39.50;;;;;;6205509;28;20038;-82
2021/09/28 14:07:13;;;;;;;3.60;1.10;;;26.40;39.60;;;;;;6205662;28;20466;-80
2021/09/28 14:10:13;;;;;;;4.60;2.20;;;26.30;39.60;;;;;;6231459;28;20340;-80
2021/09/28 14:13:14;;;;;;;1.45;0.70;;;26.20;39.80;;;;;;6221657;28;20030;-80
2021/09/28 14:16:16;;;;;;;2.75;0.82;;;26.30;40.10;;;;;;6222225;28;20029;-81
2021/09/28 14:19:17;;;;;;;4.88;1.05;;;26.20;40.10;;;;;;6215337;28;20030;-79
2021/09/28 14:22:18;;;;;;;4.95;1.25;;;26.20;40.20;;;;;;6220083;28;20109;-80
2021/09/28 14:25:20;;;;;;;1.02;0.80;;;26.20;40.30;;;;;;6222059;28;20041;-80
2021/09/28 14:28:21;;;;;;;1.30;0.75;;;26.20;40.50;;;;;;6203841;28;20038;-80
2021/09/28 14:31:21;;;;;;;1.92;0.75;;;26.10;40.80;;;;;;6221509;28;20305;-80
2021/09/28 14:34:22;;;;;;;2.75;0.98;;;26.10;40.90;;;;;;6222853;28;20033;-80
2021/09/28 14:37:27;;;;;;;1.88;0.77;;;25.60;43.10;;;;;;6220016;28;20099;-80
2021/09/28 14:40:28;;;;;;;2.53;1.00;;;24.90;43.90;;;;;;6222014;28;20044;-80
2021/09/28 14:43:29;;;;;;;1.05;0.88;;;24.50;44.70;;;;;;6223274;28;20042;-81
2021/09/28 14:46:32;;;;;;;5.43;1.20;;;24.40;44.90;;;;;;6220243;28;20129;-81
2021/09/28 14:49:33;;;;;;;2.78;1.20;;;24.30;45.10;;;;;;6200214;28;20040;-81
2021/09/28 14:52:34;;;;;;;4.55;1.20;;;24.30;45.10;;;;;;6221885;28;20065;-81
2021/09/28 14:55:35;;;;;;;2.25;1.00;;;24.30;45.00;;;;;;6220640;28;20061;-81
2021/09/28 14:58:36;;;;;;;2.20;0.88;;;24.40;45.10;;;;;;6222451;28;20034;-82
2021/09/28 15:01:39;;;;;;;4.03;1.30;;;24.40;44.90;;;;;;6210062;28;20041;-80
2021/09/28 15:04:39;;;;;;;0.70;0.70;;;24.40;45.20;;;;;;6205032;28;20045;-80
2021/09/28 15:07:40;;;;;;;4.72;1.10;;;24.40;45.10;;;;;;6209547;28;20034;-79
2021/09/28 15:10:41;;;;;;;2.75;1.48;;;24.50;44.90;;;;;;6231930;28;20046;-79
2021/09/28 15:13:42;;;;;;;4.22;1.35;;;24.50;44.90;;;;;;6205294;28;20046;-80
2021/09/28 15:16:43;;;;;;;2.20;0.95;;;24.60;44.80;;;;;;6197054;28;20122;-80
2021/09/28 15:19:46;;;;;;;3.72;1.10;;;24.70;44.80;;;;;;6236828;28;20454;-80
2021/09/28 15:22:47;;;;;;;2.53;1.33;;;24.70;44.60;;;;;;6202397;28;20405;-80
2021/09/28 15:25:48;;;;;;;1.95;1.08;;;24.80;44.50;;;;;;6217028;28;20096;-80
2021/09/28 15:28:50;;;;;;;2.08;1.00;;;24.80;44.40;;;;;;6196932;28;20389;-79
2021/09/28 15:32:06;;;;;;;1.88;1.02;;;24.70;44.20;;;;;;6196631;28;20375;-80
2021/09/28 15:35:08;;;;;;;1.58;1.05;;;24.70;44.30;;;;;;6202698;28;20116;-80
2021/09/28 15:38:09;;;;;;;1.83;1.20;;;24.70;44.40;;;;;;6219958;28;20031;-80
2021/09/28 15:41:12;;;;;;;3.08;1.48;;;24.70;44.50;;;;;;6204702;28;20049;-80
2021/09/28 15:44:14;;;;;;;1.45;0.88;;;24.60;44.70;;;;;;6190888;28;20035;-80
2021/09/28 15:47:17;;;;;;;3.33;1.05;;;24.50;44.90;;;;;;6194206;28;20159;-80
2021/09/28 15:50:18;;;;;;;3.17;1.17;;;24.60;45.00;;;;;;6195991;28;20076;-80
2021/09/28 15:53:19;;;;;;;4.30;1.10;;;24.50;45.00;;;;;;6199833;28;20034;-80
2021/09/28 15:56:21;;;;;;;3.72;1.40;;;24.50;45.10;;;;;;6194453;28;20059;-80
2021/09/28 15:59:22;;;;;;;3.85;1.75;;;24.50;45.30;;;;;;6200085;28;20049;-80
2021/09/28 16:02:23;;;;;;;2.60;1.00;;;24.40;45.50;;;;;;6198459;28;20425;-80